NCAR-RAP Real-Time Weather Data

Output produced by METARs form (20 August 2017  04:13 UTC)
found at http://weather.rap.ucar.edu/surface/
 
Conditions at: KTYQ observed 20 August 2017  03:55 UTC
Temperature: 18.2°C (65°F)
Dewpoint: 16.6°C (62°F) [RH = 90%]
Pressure (altimeter): 30.03 inches Hg (1017.0 mb)
Winds: calm
Visibility: 10 or more miles (16+ km)
Ceiling: at least 12,000 feet AGL
Clouds: sky clear below 12,000 feet AGL
Present Weather: automated observation with no human augmentation;
there may or may not be significant weather present at this time
KTYQ 200355Z AUTO 00000KT 10SM CLR 18/17 A3003 RMK AO2 T01820166 402780164